»·PEaware :: AAY503 KSMX-KLAS

AAY503 :: KSMX-KLAS

FLIGHT INFORMATION

Flight Status: Arrived
Operator:
Allegiant Air
More flights by this operator :: More flights under this callsign
Pilot: Chandler S. (807)
Aircraft: MCDONNELL-DOUGLAS MD-88
(MD88)
More flights by this aircraft type
Origin: KSMX Santa Maria Pub/Capt Hancock
United States
Destination: KLAS McCarran Intl
United States
More flights between these airports :: More routes between these airports
Route: +BUELT4 RZS PMD MISEN KEPEC6
File this flight plan on PilotEdge
Remarks:
Altitude:
(Current/Filed)
27,000ft
Speed:
(Current/Filed)
300kts
Departed: 26-Nov-17 04:31 PM
Arrived: 26-Nov-17 05:30 PM
Distance/Time
Traveled:
269nm/0:59
Distance/Time
To Go:
Arrived

Flight Plot

Page will automatically refresh every two minutes.

Flight plan parsing failed; only flown route is shown


Map Options




Map Legend


Flown Route
Filed Route
Departure Airport
Arrival Airport
Navaid (VOR, NDB)
Fix

Horizontal Profiles

Position Reports

Time Latitude Longitude Heading Altitude Ground
Speed
26-Nov-17 16:00 34.898755 -120.448276 134 267ft 0kts
26-Nov-17 16:01 34.898755 -120.448276 134 267ft 0kts
26-Nov-17 16:02 34.898755 -120.448276 134 267ft 0kts
26-Nov-17 16:03 34.898755 -120.448276 134 267ft 0kts
26-Nov-17 16:04 34.898755 -120.448276 134 267ft 0kts
26-Nov-17 16:05 34.898755 -120.448276 134 267ft 0kts
26-Nov-17 16:06 34.898755 -120.448276 134 267ft 0kts
26-Nov-17 16:07 34.898755 -120.448276 134 267ft 0kts
26-Nov-17 16:08 34.898755 -120.448276 134 267ft 0kts
26-Nov-17 16:09 34.898755 -120.448276 134 267ft 0kts
26-Nov-17 16:10 34.898755 -120.448276 134 267ft 0kts
26-Nov-17 16:11 34.898755 -120.448276 134 267ft 0kts
26-Nov-17 16:12 34.898755 -120.448276 134 267ft 0kts
26-Nov-17 16:13 34.898755 -120.448276 134 267ft 0kts
26-Nov-17 16:14 34.898755 -120.448276 134 267ft 0kts
26-Nov-17 16:15 34.898755 -120.448276 134 267ft 0kts
26-Nov-17 16:16 34.898755 -120.448276 134 267ft 0kts
26-Nov-17 16:17 34.898755 -120.448276 134 267ft 0kts
26-Nov-17 16:18 34.898755 -120.448276 134 267ft 0kts
26-Nov-17 16:19 34.898755 -120.448276 134 267ft 0kts
26-Nov-17 16:20 34.898755 -120.448276 134 267ft 0kts
26-Nov-17 16:21 34.898755 -120.448276 134 267ft 0kts
26-Nov-17 16:22 34.898755 -120.448276 134 267ft 0kts
26-Nov-17 16:23 34.898755 -120.448276 134 267ft 0kts
26-Nov-17 16:24 34.898755 -120.448276 134 267ft 0kts
26-Nov-17 16:25 34.898755 -120.448276 134 267ft 0kts
26-Nov-17 16:26 34.898755 -120.448276 134 267ft 0kts
26-Nov-17 16:27 34.898755 -120.448276 134 267ft 0kts
26-Nov-17 16:28 34.898755 -120.448276 134 267ft 0kts
26-Nov-17 16:29 34.898755 -120.448276 134 267ft 0kts
26-Nov-17 16:30 34.898755 -120.448276 134 267ft 0kts
26-Nov-17 16:31 34.898538 -120.448120 158 267ft 4kts
26-Nov-17 16:32 34.896938 -120.447110 167 267ft 0kts
26-Nov-17 16:33 34.894241 -120.445074 152 267ft 10kts
26-Nov-17 16:34 34.893025 -120.444999 201 267ft 0kts
26-Nov-17 16:35 34.892991 -120.445992 315 267ft 0kts
26-Nov-17 16:36 34.893641 -120.446764 315 267ft 48kts
26-Nov-17 16:37 34.931347 -120.476252 9 1813ft 198kts
26-Nov-17 16:38 34.932404 -120.434839 173 4211ft 173kts
26-Nov-17 16:39 34.872809 -120.433507 179 6974ft 265kts
26-Nov-17 16:40 34.798994 -120.399741 129 10512ft 334kts
26-Nov-17 16:41 34.750301 -120.301370 125 13856ft 350kts
26-Nov-17 16:42 34.702699 -120.199196 125 17054ft 353kts
26-Nov-17 16:43 34.656633 -120.095836 125 20214ft 344kts
26-Nov-17 16:44 34.631557 -119.988430 93 23215ft 343kts
26-Nov-17 16:45 34.631651 -119.870166 97 25539ft 372kts
26-Nov-17 16:46 34.628473 -119.737956 98 27146ft 424kts
26-Nov-17 16:47 34.622900 -119.582215 96 27155ft 490kts
26-Nov-17 16:48 34.620184 -119.411149 94 27129ft 523kts
26-Nov-17 16:49 34.619911 -119.233202 93 27094ft 530kts
26-Nov-17 16:50 34.620948 -119.055489 93 27091ft 529kts
26-Nov-17 16:51 34.622049 -118.883754 93 27108ft 527kts
26-Nov-17 16:52 34.623536 -118.708970 92 27103ft 525kts
26-Nov-17 16:53 34.625350 -118.532583 92 27067ft 525kts
26-Nov-17 16:54 34.627404 -118.355563 92 27076ft 525kts
26-Nov-17 16:55 34.629672 -118.181233 92 27072ft 524kts
26-Nov-17 16:56 34.646577 -118.005885 74 27068ft 532kts
26-Nov-17 16:57 34.695913 -117.836778 73 27057ft 533kts
26-Nov-17 16:58 34.743383 -117.666569 73 27075ft 533kts
26-Nov-17 16:59 34.790971 -117.496445 72 27086ft 533kts
26-Nov-17 17:00 34.838762 -117.326460 73 27092ft 533kts
26-Nov-17 17:01 34.886800 -117.156392 73 27065ft 533kts
26-Nov-17 17:02 34.934923 -116.986817 72 27060ft 534kts
26-Nov-17 17:03 34.983585 -116.816330 72 27058ft 532kts
26-Nov-17 17:04 35.031763 -116.648315 72 26018ft 523kts
26-Nov-17 17:05 35.079396 -116.482827 72 24357ft 514kts
26-Nov-17 17:06 35.152923 -116.336844 43 24082ft 517kts
26-Nov-17 17:07 35.253670 -116.213007 45 24072ft 520kts
26-Nov-17 17:08 35.354089 -116.085930 45 23955ft 524kts
26-Nov-17 17:09 35.451150 -115.963178 45 21006ft 469kts
26-Nov-17 17:10 35.536202 -115.855734 45 17907ft 417kts
26-Nov-17 17:11 35.613222 -115.758534 45 14910ft 382kts
26-Nov-17 17:12 35.684029 -115.669169 46 13065ft 366kts
26-Nov-17 17:13 35.761233 -115.579470 24 13052ft 391kts
26-Nov-17 17:14 35.866387 -115.568014 357 13050ft 380kts
26-Nov-17 17:15 35.969774 -115.551826 28 12627ft 387kts
26-Nov-17 17:16 36.015465 -115.442532 77 11132ft 359kts
26-Nov-17 17:17 36.031069 -115.331718 101 10965ft 305kts
26-Nov-17 17:18 36.020600 -115.227444 97 9348ft 310kts
26-Nov-17 17:19 36.013107 -115.124439 94 8337ft 307kts
26-Nov-17 17:20 36.007110 -115.024086 97 8002ft 267kts
26-Nov-17 17:21 36.002006 -114.941196 98 7974ft 230kts
26-Nov-17 17:22 35.996943 -114.859174 98 8045ft 249kts
26-Nov-17 17:23 35.991380 -114.773109 98 8027ft 253kts
26-Nov-17 17:24 35.985623 -114.686495 98 8020ft 254kts
26-Nov-17 17:25 36.008159 -114.613084 23 8025ft 267kts
26-Nov-17 17:26 36.070581 -114.631796 289 8011ft 252kts
26-Nov-17 17:27 36.075707 -114.711978 272 8006ft 233kts
26-Nov-17 17:28 36.074376 -114.795432 264 7527ft 256kts
26-Nov-17 17:29 36.073421 -114.885215 267 6155ft 265kts
26-Nov-17 17:30 36.073580 -114.963848 268 4954ft 201kts
26-Nov-17 17:31 36.073597 -115.025833 270 3738ft 154kts
26-Nov-17 17:32 36.073643 -115.074276 271 2999ft 147kts
26-Nov-17 17:33 36.073603 -115.121620 270 2264ft 135kts
26-Nov-17 17:34 36.073938 -115.148373 288 2147ft 41kts
26-Nov-17 17:35 36.077359 -115.152581 336 2147ft 1kts
26-Nov-17 17:36 36.082634 -115.155616 335 2147ft 21kts
26-Nov-17 17:37 36.085645 -115.155570 101 2147ft 11kts
26-Nov-17 17:38 36.085517 -115.155089 111 2147ft 0kts

Navigation Log

Ident Type
Flight plan parsing failed, navigation log unavailable